createdAt,value
2023-05-16T00:00:07.019Z,95765.69
2023-05-16T00:01:09.607Z,95766.78
2023-05-16T00:02:14.572Z,95766.94
2023-05-16T00:03:16.909Z,95762.88
2023-05-16T00:04:24.981Z,95772.53
2023-05-16T00:05:27.202Z,95764.78
2023-05-16T00:06:32.169Z,95765.75
2023-05-16T00:07:47.015Z,95769.16
2023-05-16T00:08:51.926Z,95766.44
2023-05-16T00:09:53.986Z,95752.91
2023-05-16T00:10:58.749Z,95753.13
2023-05-16T00:12:00.905Z,95759.28
2023-05-16T00:13:05.676Z,95751.59
2023-05-16T00:14:08.032Z,95754.38
2023-05-16T00:15:15.679Z,95754.44
2023-05-16T00:16:18.294Z,95752.84
2023-05-16T00:17:23.609Z,95756.19
2023-05-16T00:18:27.339Z,95753.66
2023-05-16T00:19:35.791Z,95764.13
2023-05-16T00:20:37.898Z,95760.84
2023-05-16T00:21:43.010Z,95757.50
2023-05-16T00:22:46.612Z,95758.41
2023-05-16T00:23:51.534Z,95755.88
2023-05-16T00:24:53.752Z,95753.25
2023-05-16T00:25:58.385Z,95761.00
2023-05-16T00:27:00.758Z,95751.56
2023-05-16T00:28:05.785Z,95753.31
2023-05-16T00:29:07.928Z,95751.56
2023-05-16T00:30:13.676Z,95754.28
2023-05-16T00:31:15.936Z,95759.56
2023-05-16T00:32:21.779Z,95758.69
2023-05-16T00:33:24.063Z,95750.22
2023-05-16T00:34:28.775Z,95751.97
2023-05-16T00:35:33.756Z,95756.25
2023-05-16T00:36:38.782Z,95751.19
2023-05-16T00:37:40.955Z,95749.63
2023-05-16T00:38:45.895Z,95747.19
2023-05-16T00:39:48.014Z,95755.84
2023-05-16T00:40:52.682Z,95750.78
2023-05-16T00:41:55.048Z,95750.88
2023-05-16T00:42:59.855Z,95755.13
2023-05-16T00:44:01.907Z,95752.63
2023-05-16T00:45:07.127Z,95751.78
2023-05-16T00:46:09.620Z,95754.44
2023-05-16T00:47:14.910Z,95754.56
2023-05-16T00:48:17.208Z,95752.88
2023-05-16T00:49:22.506Z,95754.69
2023-05-16T00:50:24.788Z,95749.69
2023-05-16T00:51:32.577Z,95753.22
2023-05-16T00:52:36.296Z,95753.13
2023-05-16T00:53:41.036Z,95747.28
2023-05-16T00:54:43.466Z,95742.13
2023-05-16T00:55:48.728Z,95741.16
2023-05-16T00:56:51.016Z,95747.84
2023-05-16T00:57:56.030Z,95745.22
2023-05-16T00:58:58.392Z,95740.88
2023-05-16T01:00:03.152Z,95737.47
2023-05-16T01:01:05.848Z,95735.03
2023-05-16T01:02:10.705Z,95739.38
2023-05-16T01:03:13.014Z,95736.00
2023-05-16T01:04:17.906Z,95739.50
2023-05-16T01:05:20.207Z,95736.97
2023-05-16T01:06:25.070Z,95737.94
2023-05-16T01:07:30.068Z,95748.44
2023-05-16T01:08:35.065Z,95741.69
2023-05-16T01:09:37.524Z,95744.38
2023-05-16T01:10:51.819Z,95746.94
2023-05-16T01:12:02.303Z,95741.09
2023-05-16T01:13:14.432Z,95746.38
2023-05-16T01:14:26.981Z,95741.41
2023-05-16T01:15:35.693Z,95750.16
2023-05-16T01:16:43.247Z,95745.09
2023-05-16T01:17:56.369Z,95751.97
2023-05-16T01:19:14.129Z,95749.53
2023-05-16T01:20:31.950Z,95751.47
2023-05-16T01:21:49.237Z,95752.44
2023-05-16T01:23:08.500Z,95742.13
2023-05-16T01:24:15.350Z,95741.38
2023-05-16T01:25:35.194Z,95749.81
2023-05-16T01:26:41.826Z,95742.78
2023-05-16T01:27:48.438Z,95745.34
2023-05-16T01:28:52.141Z,95741.94
2023-05-16T01:29:58.925Z,95736.75
2023-05-16T01:31:01.358Z,95736.66
2023-05-16T01:32:06.157Z,95738.28
2023-05-16T01:33:08.735Z,95743.38
2023-05-16T01:34:13.439Z,95743.25
2023-05-16T01:35:17.880Z,95741.22
2023-05-16T01:36:28.425Z,95741.94
2023-05-16T01:37:36.206Z,95741.94
2023-05-16T01:38:47.597Z,95740.13
2023-05-16T01:39:57.016Z,95743.38
2023-05-16T01:41:07.262Z,95736.59
2023-05-16T01:42:14.992Z,95736.66
2023-05-16T01:43:23.948Z,95741.06
2023-05-16T01:44:35.544Z,95743.75
2023-05-16T01:45:40.215Z,95740.41
2023-05-16T01:46:48.879Z,95744.78
2023-05-16T01:47:59.601Z,95742.19
2023-05-16T01:49:13.437Z,95740.53
2023-05-16T01:50:18.199Z,95750.84
2023-05-16T01:51:25.790Z,95743.13
2023-05-16T01:52:32.799Z,95742.19
2023-05-16T01:53:42.620Z,95744.78
2023-05-16T01:54:47.471Z,95743.13
2023-05-16T01:55:55.533Z,95742.19
2023-05-16T01:56:59.037Z,95737.88
2023-05-16T01:58:08.262Z,95736.91
2023-05-16T01:59:14.272Z,95737.63
2023-05-16T02:00:16.689Z,95731.50
2023-05-16T02:01:21.416Z,95735.63
2023-05-16T02:02:23.545Z,95736.28
2023-05-16T02:03:28.391Z,95739.50
2023-05-16T02:04:30.778Z,95736.78
2023-05-16T02:05:35.811Z,95736.66
2023-05-16T02:06:37.937Z,95734.81
2023-05-16T02:07:42.744Z,95742.44
2023-05-16T02:08:45.003Z,95742.44
2023-05-16T02:09:49.759Z,95745.84
2023-05-16T02:10:51.900Z,95740.63
2023-05-16T02:11:56.655Z,95743.16
2023-05-16T02:13:01.336Z,95740.47
2023-05-16T02:14:06.181Z,95745.53
2023-05-16T02:15:14.697Z,95744.47
2023-05-16T02:16:16.769Z,95747.78
2023-05-16T02:17:22.207Z,95745.00
2023-05-16T02:18:24.447Z,95744.09
2023-05-16T02:19:29.362Z,95743.22
2023-05-16T02:20:31.829Z,95743.97
2023-05-16T02:21:36.513Z,95749.91
2023-05-16T02:22:47.264Z,95750.72
2023-05-16T02:23:51.991Z,95751.56
2023-05-16T02:24:54.531Z,95748.00
2023-05-16T02:25:59.281Z,95749.63
2023-05-16T02:27:01.916Z,95747.81
2023-05-16T02:28:06.984Z,95754.63
2023-05-16T02:29:11.785Z,95752.84
2023-05-16T02:30:16.858Z,95745.88
2023-05-16T02:31:34.982Z,95746.66
2023-05-16T02:32:39.694Z,95744.94
2023-05-16T02:33:42.322Z,95740.72
2023-05-16T02:34:47.075Z,95744.19
2023-05-16T02:35:49.203Z,95750.34
2023-05-16T02:36:53.871Z,95741.81
2023-05-16T02:37:57.739Z,95748.78
2023-05-16T02:39:02.437Z,95741.97
2023-05-16T02:40:05.955Z,95744.59
2023-05-16T02:41:10.829Z,95747.25
2023-05-16T02:42:13.786Z,95741.25
2023-05-16T02:43:19.025Z,95740.41
2023-05-16T02:44:23.983Z,95743.91
2023-05-16T02:45:28.875Z,95742.16
2023-05-16T02:46:34.388Z,95744.59
2023-05-16T02:47:39.205Z,95744.59
2023-05-16T02:48:41.305Z,95742.09
2023-05-16T02:49:46.030Z,95743.91
2023-05-16T02:50:48.274Z,95742.28
2023-05-16T02:51:53.015Z,95738.09
2023-05-16T02:52:55.057Z,95746.81
2023-05-16T02:54:01.270Z,95743.47
2023-05-16T02:55:20.925Z,95741.94
2023-05-16T02:56:26.822Z,95740.38
2023-05-16T02:57:28.941Z,95748.16
2023-05-16T02:58:34.301Z,95737.16
2023-05-16T02:59:39.366Z,95745.03
2023-05-16T03:00:44.318Z,95742.56
2023-05-16T03:01:49.290Z,95747.78
2023-05-16T03:02:51.601Z,95745.34
2023-05-16T03:03:56.734Z,95747.97
2023-05-16T03:05:06.470Z,95754.97
2023-05-16T03:06:11.275Z,95754.38
2023-05-16T03:07:14.250Z,95749.34
2023-05-16T03:08:19.152Z,95756.44
2023-05-16T03:09:22.053Z,95750.56
2023-05-16T03:10:26.705Z,95754.06
2023-05-16T03:11:29.297Z,95753.28
2023-05-16T03:12:34.230Z,95754.19
2023-05-16T03:13:36.340Z,95759.47
2023-05-16T03:14:43.590Z,95762.25
2023-05-16T03:15:46.283Z,95761.53
2023-05-16T03:16:51.067Z,95763.34
2023-05-16T03:17:53.221Z,95755.66
2023-05-16T03:18:57.999Z,95760.06
2023-05-16T03:20:00.408Z,95766.91
2023-05-16T03:21:06.024Z,95765.25
2023-05-16T03:22:08.203Z,95764.22
2023-05-16T03:23:13.068Z,95762.38
2023-05-16T03:24:15.452Z,95763.22
2023-05-16T03:25:20.259Z,95757.94
2023-05-16T03:26:23.018Z,95764.00
2023-05-16T03:27:29.997Z,95758.63
2023-05-16T03:28:32.270Z,95756.00
2023-05-16T03:29:37.025Z,95762.94
2023-05-16T03:30:42.330Z,95768.09
2023-05-16T03:31:47.038Z,95763.78
2023-05-16T03:32:49.264Z,95764.59
2023-05-16T03:33:53.955Z,95766.44
2023-05-16T03:34:55.999Z,95762.13
2023-05-16T03:36:00.964Z,95754.44
2023-05-16T03:37:06.093Z,95762.25
2023-05-16T03:38:08.470Z,95758.06
2023-05-16T03:39:13.133Z,95761.63
2023-05-16T03:40:15.330Z,95758.31
2023-05-16T03:41:20.036Z,95766.91
2023-05-16T03:42:22.271Z,95766.78
2023-05-16T03:43:26.902Z,95765.13
2023-05-16T03:44:28.978Z,95768.53
2023-05-16T03:45:34.142Z,95771.13
2023-05-16T03:46:41.603Z,95770.28
2023-05-16T03:47:43.815Z,95772.84
2023-05-16T03:48:48.623Z,95764.34
2023-05-16T03:49:50.787Z,95773.91
2023-05-16T03:50:55.777Z,95773.94
2023-05-16T03:51:57.910Z,95773.03
2023-05-16T03:53:02.650Z,95772.06
2023-05-16T03:54:04.904Z,95770.38
2023-05-16T03:55:10.856Z,95771.13
2023-05-16T03:56:12.960Z,95771.94
2023-05-16T03:57:17.679Z,95772.72
2023-05-16T03:58:19.850Z,95770.03
2023-05-16T03:59:24.534Z,95772.56
2023-05-16T04:00:27.049Z,95777.50
2023-05-16T04:01:31.782Z,95771.38
2023-05-16T04:02:37.019Z,95767.72
2023-05-16T04:03:41.899Z,95774.44
2023-05-16T04:04:43.973Z,95768.09
2023-05-16T04:05:48.718Z,95769.56
2023-05-16T04:06:50.892Z,95769.25
2023-05-16T04:07:55.627Z,95769.06
2023-05-16T04:09:00.507Z,95760.09
2023-05-16T04:10:02.907Z,95759.66
2023-05-16T04:11:07.735Z,95761.00
2023-05-16T04:12:12.602Z,95762.59
2023-05-16T04:13:17.941Z,95761.63
2023-05-16T04:14:20.267Z,95763.09
2023-05-16T04:15:25.043Z,95765.59
2023-05-16T04:16:27.464Z,95767.91
2023-05-16T04:17:32.228Z,95760.00
2023-05-16T04:18:37.099Z,95769.31
2023-05-16T04:19:41.881Z,95767.38
2023-05-16T04:20:44.866Z,95773.16
2023-05-16T04:21:49.708Z,95766.94
2023-05-16T04:22:54.380Z,95770.97
2023-05-16T04:23:57.937Z,95774.09
2023-05-16T04:25:02.926Z,95766.09
2023-05-16T04:26:05.128Z,95764.13
2023-05-16T04:27:10.632Z,95767.41
2023-05-16T04:28:16.008Z,95764.75
2023-05-16T04:29:18.149Z,95767.19
2023-05-16T04:30:22.907Z,95766.19
2023-05-16T04:31:26.191Z,95769.16
2023-05-16T04:32:34.450Z,95763.13
2023-05-16T04:33:39.160Z,95756.84
2023-05-16T04:34:46.876Z,95755.72
2023-05-16T04:35:52.143Z,95766.91
2023-05-16T04:36:54.265Z,95767.75
2023-05-16T04:37:58.966Z,95766.81
2023-05-16T04:39:01.059Z,95753.56
2023-05-16T04:40:07.552Z,95762.97
2023-05-16T04:41:10.177Z,95758.72
2023-05-16T04:42:14.939Z,95762.91
2023-05-16T04:43:17.155Z,95762.81
2023-05-16T04:44:22.101Z,95754.38
2023-05-16T04:45:24.183Z,95754.31
2023-05-16T04:46:29.028Z,95764.66
2023-05-16T04:47:31.963Z,95760.38
2023-05-16T04:48:36.979Z,95772.47
2023-05-16T04:49:41.642Z,95769.88
2023-05-16T04:50:46.387Z,95767.31
2023-05-16T04:51:48.688Z,95780.22
2023-05-16T04:52:55.741Z,95776.66
2023-05-16T04:53:58.542Z,95766.19
2023-05-16T04:55:03.351Z,95772.03
2023-05-16T04:56:09.098Z,95782.16
2023-05-16T04:57:11.191Z,95780.34
2023-05-16T04:58:16.132Z,95779.34
2023-05-16T04:59:18.239Z,95778.28
2023-05-16T05:00:23.402Z,95782.53
2023-05-16T05:01:25.722Z,95780.66
2023-05-16T05:02:30.450Z,95780.34
2023-05-16T05:03:32.740Z,95780.19
2023-05-16T05:04:38.394Z,95778.91
2023-05-16T05:05:43.239Z,95778.75
2023-05-16T05:06:48.083Z,95780.19
2023-05-16T05:07:50.193Z,95775.97
2023-05-16T05:08:54.891Z,95780.97
2023-05-16T05:09:57.001Z,95777.31
2023-05-16T05:11:01.853Z,95776.25
2023-05-16T05:12:04.527Z,95782.03
2023-05-16T05:13:09.294Z,95786.06
2023-05-16T05:14:11.455Z,95787.50
2023-05-16T05:15:16.354Z,95784.69
2023-05-16T05:16:18.458Z,95781.94
2023-05-16T05:17:24.462Z,95781.88
2023-05-16T05:18:26.780Z,95781.03
2023-05-16T05:19:34.532Z,95780.09
2023-05-16T05:20:39.404Z,95778.72
2023-05-16T05:21:44.582Z,95782.16
2023-05-16T05:22:49.257Z,95780.00
2023-05-16T05:23:51.545Z,95786.47
2023-05-16T05:24:56.378Z,95774.03
2023-05-16T05:25:58.607Z,95779.06
2023-05-16T05:27:03.347Z,95781.31
2023-05-16T05:28:06.400Z,95784.50
2023-05-16T05:29:11.235Z,95778.72
2023-05-16T05:30:16.430Z,95772.59
2023-05-16T05:31:18.483Z,95780.63
2023-05-16T05:32:23.236Z,95768.28
2023-05-16T05:33:28.287Z,95770.97
2023-05-16T05:34:33.484Z,95778.47
2023-05-16T05:35:35.761Z,95777.22
2023-05-16T05:36:40.491Z,95768.44
2023-05-16T05:37:47.982Z,95765.41
2023-05-16T05:38:50.062Z,95776.13
2023-05-16T05:39:54.741Z,95772.94
2023-05-16T05:40:57.166Z,95770.66
2023-05-16T05:42:02.572Z,95774.41
2023-05-16T05:43:07.546Z,95784.50
2023-05-16T05:44:09.684Z,95778.25
2023-05-16T05:45:14.602Z,95769.53
2023-05-16T05:46:17.472Z,95777.72
2023-05-16T05:47:22.373Z,95762.53
2023-05-16T05:48:24.659Z,95768.31
2023-05-16T05:49:30.105Z,95769.84
2023-05-16T05:50:32.260Z,95769.53
2023-05-16T05:51:37.167Z,95769.28
2023-05-16T05:52:39.451Z,95763.34
2023-05-16T05:53:46.977Z,95768.28
2023-05-16T05:55:03.868Z,95766.88
2023-05-16T05:56:06.150Z,95767.31
2023-05-16T05:57:11.176Z,95768.00
2023-05-16T05:58:13.251Z,95764.88
2023-05-16T05:59:18.224Z,95773.56
2023-05-16T06:00:20.762Z,95779.31
2023-05-16T06:01:25.516Z,95775.28
2023-05-16T06:02:28.046Z,95779.91
2023-05-16T06:03:33.041Z,95776.97
2023-05-16T06:04:38.017Z,95768.06
2023-05-16T06:05:40.157Z,95779.28
2023-05-16T06:06:44.974Z,95766.94
2023-05-16T06:07:47.099Z,95775.22
2023-05-16T06:08:54.354Z,95776.03
2023-05-16T06:09:56.544Z,95777.31
2023-05-16T06:11:01.771Z,95776.22
2023-05-16T06:12:04.486Z,95774.88
2023-05-16T06:13:09.509Z,95782.13
2023-05-16T06:14:11.587Z,95788.78
2023-05-16T06:15:16.328Z,95782.78
2023-05-16T06:16:18.564Z,95784.91
2023-05-16T06:17:23.286Z,95781.78
2023-05-16T06:18:25.372Z,95783.22
2023-05-16T06:19:30.106Z,95784.31
2023-05-16T06:20:32.354Z,95778.28
2023-05-16T06:21:37.585Z,95777.16
2023-05-16T06:22:39.766Z,95782.66
2023-05-16T06:23:44.600Z,95784.72
2023-05-16T06:24:49.436Z,95783.28
2023-05-16T06:25:54.219Z,95791.09
2023-05-16T06:26:58.901Z,95784.31
2023-05-16T06:28:01.074Z,95786.63
2023-05-16T06:29:05.776Z,95783.09
2023-05-16T06:30:09.546Z,95789.78
2023-05-16T06:31:14.388Z,95792.66
2023-05-16T06:32:16.551Z,95788.28
2023-05-16T06:33:21.273Z,95793.56
2023-05-16T06:34:28.437Z,95798.25
2023-05-16T06:35:33.189Z,95792.59
2023-05-16T06:36:35.329Z,95786.56
2023-05-16T06:37:43.348Z,95791.75
2023-05-16T06:38:45.561Z,95789.72
2023-05-16T06:39:53.044Z,95791.56
2023-05-16T06:40:55.193Z,95781.16
2023-05-16T06:41:59.858Z,95781.16
2023-05-16T06:43:04.542Z,95786.94
2023-05-16T06:44:09.260Z,95784.03
2023-05-16T06:45:12.205Z,95782.09
2023-05-16T06:46:16.957Z,95785.97
2023-05-16T06:47:19.133Z,95775.69
2023-05-16T06:48:24.036Z,95775.78
2023-05-16T06:49:28.770Z,95770.38
2023-05-16T06:50:30.911Z,95767.22
2023-05-16T06:51:35.846Z,95764.97
2023-05-16T06:52:37.978Z,95774.47
2023-05-16T06:53:42.747Z,95772.53
2023-05-16T06:54:45.132Z,95768.28
2023-05-16T06:55:52.616Z,95778.47
2023-05-16T06:56:54.767Z,95777.25
2023-05-16T06:57:59.459Z,95771.38
2023-05-16T06:59:02.341Z,95769.22
2023-05-16T07:00:08.548Z,95771.47
2023-05-16T07:01:13.361Z,95783.19
2023-05-16T07:02:15.581Z,95769.91
2023-05-16T07:03:20.419Z,95771.06
2023-05-16T07:04:25.252Z,95770.38
2023-05-16T07:05:27.502Z,95772.38
2023-05-16T07:06:32.590Z,95781.56
2023-05-16T07:07:34.832Z,95773.56
2023-05-16T07:08:39.615Z,95778.97
2023-05-16T07:09:41.813Z,95777.03
2023-05-16T07:10:47.012Z,95785.72
2023-05-16T07:11:51.734Z,95779.84
2023-05-16T07:12:56.805Z,95779.16
2023-05-16T07:14:01.496Z,95787.22
2023-05-16T07:15:06.768Z,95784.38
2023-05-16T07:16:09.314Z,95784.91
2023-05-16T07:17:14.325Z,95787.72
2023-05-16T07:18:19.054Z,95793.34
2023-05-16T07:19:21.464Z,95789.09
2023-05-16T07:20:26.572Z,95785.50
2023-05-16T07:21:29.595Z,95795.50
2023-05-16T07:22:34.364Z,95791.00
2023-05-16T07:23:36.417Z,95788.41
2023-05-16T07:24:41.184Z,95789.56
2023-05-16T07:25:45.995Z,95791.13
2023-05-16T07:26:48.057Z,95790.91
2023-05-16T07:27:55.488Z,95793.81
2023-05-16T07:28:58.022Z,95790.25
2023-05-16T07:30:02.789Z,95793.59
2023-05-16T07:31:08.649Z,95789.75
2023-05-16T07:32:13.382Z,95794.63
2023-05-16T07:33:15.636Z,95798.81
2023-05-16T07:34:20.590Z,95798.44
2023-05-16T07:35:22.728Z,95801.88
2023-05-16T07:36:27.540Z,95804.97
2023-05-16T07:37:31.115Z,95804.53
2023-05-16T07:38:36.280Z,95801.00
2023-05-16T07:39:40.959Z,95802.84
2023-05-16T07:40:45.739Z,95805.78
2023-05-16T07:41:47.894Z,95803.59
2023-05-16T07:42:55.211Z,95808.41
2023-05-16T07:43:59.930Z,95805.53
2023-05-16T07:45:02.665Z,95802.84
2023-05-16T07:46:08.187Z,95812.53
2023-05-16T07:47:10.424Z,95798.94
2023-05-16T07:48:15.274Z,95805.78
2023-05-16T07:49:17.509Z,95807.41
2023-05-16T07:50:22.298Z,95806.03
2023-05-16T07:51:24.671Z,95801.94
2023-05-16T07:52:29.519Z,95805.06
2023-05-16T07:53:34.171Z,95791.09
2023-05-16T07:54:39.234Z,95783.28
2023-05-16T07:55:43.943Z,95790.47
2023-05-16T07:56:48.785Z,95787.78
2023-05-16T07:57:56.125Z,95790.38
2023-05-16T07:58:58.269Z,95790.47
2023-05-16T08:00:04.458Z,95792.88
2023-05-16T08:01:06.854Z,95796.72
2023-05-16T08:02:13.198Z,95800.88
2023-05-16T08:03:15.717Z,95801.97
2023-05-16T08:04:20.593Z,95789.97
2023-05-16T08:05:22.929Z,95791.72
2023-05-16T08:06:27.851Z,95805.81
2023-05-16T08:07:32.569Z,95798.19
2023-05-16T08:08:37.524Z,95791.69
2023-05-16T08:09:39.709Z,95798.38
2023-05-16T08:10:44.432Z,95787.72
2023-05-16T08:11:49.152Z,95783.56
2023-05-16T08:12:56.632Z,95794.63
2023-05-16T08:14:01.445Z,95799.75
2023-05-16T08:15:04.049Z,95798.81
2023-05-16T08:16:09.606Z,95809.97
2023-05-16T08:17:11.813Z,95808.53
2023-05-16T08:18:18.841Z,95812.88
2023-05-16T08:19:25.559Z,95815.50
2023-05-16T08:20:31.135Z,95815.72
2023-05-16T08:21:33.448Z,95817.59
2023-05-16T08:22:38.191Z,95816.63
2023-05-16T08:23:43.818Z,95809.44
2023-05-16T08:24:46.186Z,95811.09
2023-05-16T08:25:50.940Z,95815.28
2023-05-16T08:26:53.060Z,95813.63
2023-05-16T08:28:02.377Z,95808.81
2023-05-16T08:29:07.712Z,95815.06
2023-05-16T08:30:13.754Z,95817.88
2023-05-16T08:31:16.016Z,95819.25
2023-05-16T08:32:20.926Z,95822.16
2023-05-16T08:33:23.119Z,95819.66
2023-05-16T08:34:27.897Z,95819.66
2023-05-16T08:35:32.617Z,95819.97
2023-05-16T08:36:38.080Z,95820.19
2023-05-16T08:37:40.218Z,95824.44
2023-05-16T08:38:44.985Z,95832.56
2023-05-16T08:39:47.264Z,95830.78
2023-05-16T08:40:52.061Z,95834.84
2023-05-16T08:41:57.290Z,95832.16
2023-05-16T08:43:05.425Z,95833.47
2023-05-16T08:44:07.776Z,95835.66
2023-05-16T08:45:13.860Z,95838.59
2023-05-16T08:46:23.452Z,95844.00
2023-05-16T08:47:31.585Z,95846.22
2023-05-16T08:48:37.502Z,95842.56
2023-05-16T08:49:43.564Z,95835.00
2023-05-16T08:50:48.273Z,95843.84
2023-05-16T08:51:54.530Z,95831.34
2023-05-16T08:53:00.588Z,95838.41
2023-05-16T08:54:09.295Z,95835.66
2023-05-16T08:55:14.640Z,95824.34
2023-05-16T08:56:22.447Z,95826.75
2023-05-16T08:57:24.776Z,95818.63
2023-05-16T08:58:32.703Z,95810.16
2023-05-16T08:59:35.867Z,95817.53
2023-05-16T09:00:41.097Z,95812.44
2023-05-16T09:01:44.595Z,95803.03
2023-05-16T09:02:50.039Z,95809.72
2023-05-16T09:03:53.150Z,95809.72
2023-05-16T09:05:00.285Z,95806.00
2023-05-16T09:06:03.164Z,95815.94
2023-05-16T09:07:08.821Z,95817.03
2023-05-16T09:08:13.536Z,95806.28
2023-05-16T09:09:15.785Z,95816.38
2023-05-16T09:10:21.147Z,95816.00
2023-05-16T09:11:26.677Z,95816.53
2023-05-16T09:12:28.908Z,95818.38
2023-05-16T09:13:36.313Z,95813.81
2023-05-16T09:14:41.172Z,95817.97
2023-05-16T09:15:46.230Z,95817.09
2023-05-16T09:17:06.620Z,95821.53
2023-05-16T09:18:15.839Z,95833.31
2023-05-16T09:19:20.614Z,95825.28
2023-05-16T09:20:25.371Z,95820.50
2023-05-16T09:21:29.264Z,95818.72
2023-05-16T09:22:34.022Z,95815.75
2023-05-16T09:23:39.124Z,95810.63
2023-05-16T09:24:44.528Z,95832.97
2023-05-16T09:25:49.730Z,95835.28
2023-05-16T09:26:51.990Z,95828.63
2023-05-16T09:27:57.160Z,95834.69
2023-05-16T09:29:04.713Z,95836.34
2023-05-16T09:30:08.926Z,95839.28
2023-05-16T09:31:25.165Z,95845.09
2023-05-16T09:32:29.971Z,95837.19
2023-05-16T09:33:34.932Z,95849.34
2023-05-16T09:34:39.597Z,95848.31
2023-05-16T09:35:45.713Z,95843.00
2023-05-16T09:36:54.619Z,95848.00
2023-05-16T09:37:59.387Z,95848.22
2023-05-16T09:39:06.888Z,95853.53
2023-05-16T09:40:11.101Z,95850.28
2023-05-16T09:41:15.780Z,95845.13
2023-05-16T09:42:19.950Z,95854.00
2023-05-16T09:43:29.906Z,95852.50
2023-05-16T09:44:34.770Z,95865.44
2023-05-16T09:45:39.854Z,95863.47
2023-05-16T09:46:44.660Z,95869.47
2023-05-16T09:47:47.061Z,95862.38
2023-05-16T09:48:51.844Z,95864.06
2023-05-16T09:49:54.385Z,95858.44
2023-05-16T09:51:04.223Z,95861.94
2023-05-16T09:52:07.144Z,95859.75
2023-05-16T09:53:11.924Z,95854.97
2023-05-16T09:54:16.680Z,95851.00
2023-05-16T09:55:18.905Z,95854.75
2023-05-16T09:56:23.627Z,95856.41
2023-05-16T09:57:28.548Z,95853.31
2023-05-16T09:58:32.098Z,95854.66
2023-05-16T09:59:42.162Z,95849.47
2023-05-16T10:00:44.744Z,95843.22
2023-05-16T10:01:51.962Z,95843.19
2023-05-16T10:03:01.510Z,95840.28
2023-05-16T10:04:06.037Z,95849.13
2023-05-16T10:05:11.606Z,95835.91
2023-05-16T10:06:16.816Z,95837.81
2023-05-16T10:07:24.406Z,95835.59
2023-05-16T10:08:30.400Z,95829.47
2023-05-16T10:09:33.879Z,95834.69
2023-05-16T10:10:40.579Z,95829.38
2023-05-16T10:11:46.544Z,95823.94
2023-05-16T10:12:49.288Z,95817.78
2023-05-16T10:13:55.717Z,95812.16
2023-05-16T10:15:02.873Z,95823.19
2023-05-16T10:16:11.571Z,95808.97
2023-05-16T10:17:19.231Z,95822.66
2023-05-16T10:18:22.652Z,95812.75
2023-05-16T10:19:28.944Z,95822.75
2023-05-16T10:20:31.650Z,95812.94
2023-05-16T10:21:36.709Z,95819.78
2023-05-16T10:22:46.421Z,95818.59
2023-05-16T10:23:52.107Z,95823.34
2023-05-16T10:25:03.832Z,95819.25
2023-05-16T10:26:09.283Z,95825.00
2023-05-16T10:27:14.619Z,95828.50
2023-05-16T10:28:17.272Z,95815.31
2023-05-16T10:29:23.378Z,95832.25
2023-05-16T10:30:31.638Z,95846.13
2023-05-16T10:31:51.404Z,95834.22
2023-05-16T10:32:54.086Z,95819.41
2023-05-16T10:33:59.979Z,95817.09
2023-05-16T10:35:03.790Z,95819.41
2023-05-16T10:36:10.246Z,95819.53
2023-05-16T10:37:15.203Z,95817.38
2023-05-16T10:38:19.961Z,95822.84
2023-05-16T10:39:25.938Z,95804.72
2023-05-16T10:40:29.218Z,95795.69
2023-05-16T10:41:34.461Z,95802.81
2023-05-16T10:42:36.612Z,95813.22
2023-05-16T10:43:43.843Z,95812.38
2023-05-16T10:44:58.487Z,95808.06
2023-05-16T10:46:14.414Z,95812.38
2023-05-16T10:47:19.761Z,95804.34
2023-05-16T10:48:32.282Z,95825.06
2023-05-16T10:49:37.348Z,95814.03
2023-05-16T10:50:43.976Z,95828.88
2023-05-16T10:51:46.197Z,95820.78
2023-05-16T10:52:55.934Z,95825.22
2023-05-16T10:54:08.588Z,95845.69
2023-05-16T10:55:10.756Z,95835.47
2023-05-16T10:56:15.550Z,95841.22
2023-05-16T10:57:21.082Z,95834.66
2023-05-16T10:58:46.765Z,95846.84
2023-05-16T10:59:52.839Z,95842.38
2023-05-16T11:01:25.714Z,95855.63
2023-05-16T11:02:42.958Z,95860.84
2023-05-16T11:04:00.819Z,95864.91
2023-05-16T11:05:06.072Z,95853.13
2023-05-16T11:06:08.717Z,95857.94
2023-05-16T11:07:14.054Z,95858.88
2023-05-16T11:08:16.180Z,95860.09
2023-05-16T11:09:24.143Z,95873.94
2023-05-16T11:10:29.020Z,95874.06
2023-05-16T11:11:44.362Z,95857.19
2023-05-16T11:12:54.933Z,95851.78
2023-05-16T11:13:57.101Z,95855.53
2023-05-16T11:15:02.076Z,95857.06
2023-05-16T11:16:30.728Z,95863.47
2023-05-16T11:17:46.455Z,95865.84
2023-05-16T11:18:51.025Z,95862.19
2023-05-16T11:19:59.891Z,95865.72
2023-05-16T11:21:04.381Z,95868.13
2023-05-16T11:22:15.960Z,95863.22
2023-05-16T11:23:23.227Z,95868.72
2023-05-16T11:24:31.961Z,95858.59
2023-05-16T11:25:41.566Z,95862.94
2023-05-16T11:26:46.619Z,95857.19
2023-05-16T11:27:51.856Z,95859.81
2023-05-16T11:28:58.664Z,95861.44
2023-05-16T11:30:13.820Z,95861.59
2023-05-16T11:31:18.677Z,95863.47
2023-05-16T11:32:23.999Z,95863.22
2023-05-16T11:33:30.011Z,95856.31
2023-05-16T11:34:32.737Z,95865.97
2023-05-16T11:35:37.478Z,95862.38
2023-05-16T11:36:40.754Z,95863.25
2023-05-16T11:37:45.969Z,95855.41
2023-05-16T11:38:50.700Z,95854.56
2023-05-16T11:40:02.461Z,95844.53
2023-05-16T11:41:06.813Z,95837.16
2023-05-16T11:42:11.862Z,95837.91
2023-05-16T11:43:22.968Z,95839.34
2023-05-16T11:44:27.675Z,95834.91
2023-05-16T11:45:32.620Z,95839.91
2023-05-16T11:46:38.065Z,95855.66
2023-05-16T11:47:48.282Z,95846.94
2023-05-16T11:48:53.397Z,95846.63
2023-05-16T11:49:58.196Z,95850.66
2023-05-16T11:51:03.501Z,95844.91
2023-05-16T11:52:08.775Z,95847.72
2023-05-16T11:53:10.995Z,95855.66
2023-05-16T11:54:16.580Z,95857.94
2023-05-16T11:55:36.817Z,95853.25
2023-05-16T11:56:46.529Z,95851.09
2023-05-16T11:57:52.942Z,95856.53
2023-05-16T11:58:55.359Z,95874.06
2023-05-16T12:00:08.258Z,95872.81
2023-05-16T12:01:13.175Z,95882.28
2023-05-16T12:02:17.906Z,95882.41
2023-05-16T12:03:26.064Z,95889.53
2023-05-16T12:04:31.849Z,95872.41
2023-05-16T12:05:37.285Z,95870.31
2023-05-16T12:06:39.713Z,95878.25
2023-05-16T12:07:46.832Z,95873.25
2023-05-16T12:08:53.877Z,95885.34
2023-05-16T12:09:58.559Z,95883.06
2023-05-16T12:11:01.156Z,95872.69
2023-05-16T12:12:08.227Z,95870.50
2023-05-16T12:13:13.041Z,95869.34
2023-05-16T12:14:16.019Z,95857.34
2023-05-16T12:15:21.373Z,95869.19
2023-05-16T12:16:24.119Z,95875.13
2023-05-16T12:17:29.178Z,95872.50
2023-05-16T12:18:41.121Z,95850.84
2023-05-16T12:19:47.652Z,95858.69
2023-05-16T12:20:50.194Z,95847.50
2023-05-16T12:21:58.285Z,95855.28
2023-05-16T12:23:00.591Z,95862.06
2023-05-16T12:24:08.145Z,95858.00
2023-05-16T12:25:25.255Z,95848.09
2023-05-16T12:26:32.359Z,95849.31
2023-05-16T12:27:34.586Z,95853.84
2023-05-16T12:28:39.801Z,95845.31
2023-05-16T12:29:50.504Z,95850.44
2023-05-16T12:30:52.625Z,95862.13
2023-05-16T12:31:57.593Z,95858.06
2023-05-16T12:33:01.439Z,95860.16
2023-05-16T12:34:18.746Z,95854.00
2023-05-16T12:35:21.268Z,95869.78
2023-05-16T12:36:26.599Z,95879.72
2023-05-16T12:37:28.799Z,95876.09
2023-05-16T12:38:33.614Z,95876.59
2023-05-16T12:39:40.597Z,95873.59
2023-05-16T12:40:46.205Z,95879.47
2023-05-16T12:41:51.729Z,95887.22
2023-05-16T12:42:56.798Z,95879.38
2023-05-16T12:44:19.441Z,95885.34
2023-05-16T12:45:23.485Z,95898.91
2023-05-16T12:46:28.606Z,95888.06